Trimble, Missouri
Current Conditions -  °F | °C
As of 4:53 PM on Tuesday 25 Nov 2014 (Local Time) from KMCI Reporting Station
Scattered Clouds Scattered Clouds  
Wind Chill: 26°   Ceiling: Unl
Heat Index: 33°   Visibility: 10mi
Dew Point: 19°   Wind: 8mph
Humidity: 56%   Direction: 180°S
Pressure: 30.08"   Gusts: NA
Location:  39.47°N, 94.56°W
Report Text: KMCI 252253Z 18007KT 10SM SCT200 01/M07 A3008 RMK AO2 SLP195 T00061072
Loading
Personal Weather Stations






























Interactive Weather Map New forecast layout! Learn more

10-Day Weather Forecast

Advertisements
Track Severe Weather on mobile